sensor_id;sensor_type;location;lat;lon;timestamp;pressure;altitude;pressure_sealevel;temperature;humidity
7730;BME280;3908;52.310;7.230;2022-09-16T00:02:01;51281.97;;;-145.83;96.45
7730;BME280;3908;52.310;7.230;2022-09-16T00:04:49;51346.53;;;-145.83;96.46
7730;BME280;3908;52.310;7.230;2022-09-16T00:07:38;51313.28;;;-145.83;96.76
7730;BME280;3908;52.310;7.230;2022-09-16T00:10:25;51281.97;;;-145.83;96.68
7730;BME280;3908;52.310;7.230;2022-09-16T00:13:13;51313.28;;;-145.83;96.85
7730;BME280;3908;52.310;7.230;2022-09-16T00:16:00;51309.38;;;-145.83;96.98
7730;BME280;3908;52.310;7.230;2022-09-16T00:18:47;51315.25;;;-145.83;96.83
7730;BME280;3908;52.310;7.230;2022-09-16T00:21:36;51295.69;;;-145.83;96.96
7730;BME280;3908;52.310;7.230;2022-09-16T00:24:23;51268.28;;;-145.83;96.80
7730;BME280;3908;52.310;7.230;2022-09-16T00:27:10;51295.69;;;-145.83;96.91
7730;BME280;3908;52.310;7.230;2022-09-16T00:29:57;51287.84;;;-145.83;97.00
7730;BME280;3908;52.310;7.230;2022-09-16T00:32:44;51268.28;;;-145.83;96.77
7730;BME280;3908;52.310;7.230;2022-09-16T00:35:31;51289.81;;;-145.83;96.86
7730;BME280;3908;52.310;7.230;2022-09-16T00:38:20;51272.22;;;-145.83;96.93
7730;BME280;3908;52.310;7.230;2022-09-16T00:41:13;51295.69;;;-145.83;96.89
7730;BME280;3908;52.310;7.230;2022-09-16T00:44:03;51319.16;;;-145.83;97.02
7730;BME280;3908;52.310;7.230;2022-09-16T00:46:50;51317.19;;;-145.83;96.91
7730;BME280;3908;52.310;7.230;2022-09-16T00:49:38;51289.81;;;-145.83;97.02
7730;BME280;3908;52.310;7.230;2022-09-16T00:52:27;51291.75;;;-145.83;97.04
7730;BME280;3908;52.310;7.230;2022-09-16T00:55:18;51266.34;;;-145.83;97.42
7730;BME280;3908;52.310;7.230;2022-09-16T00:58:12;51268.28;;;-145.83;97.46
7730;BME280;3908;52.310;7.230;2022-09-16T01:01:02;51305.47;;;-145.83;97.49
7730;BME280;3908;52.310;7.230;2022-09-16T01:03:52;51297.63;;;-145.83;97.42
7730;BME280;3908;52.310;7.230;2022-09-16T01:06:41;51326.97;;;-145.83;97.90
7730;BME280;3908;52.310;7.230;2022-09-16T01:09:28;51305.47;;;-145.83;97.93
7730;BME280;3908;52.310;7.230;2022-09-16T01:12:17;51295.69;;;-145.83;97.94
7730;BME280;3908;52.310;7.230;2022-09-16T01:15:05;51315.25;;;-145.83;97.79
7730;BME280;3908;52.310;7.230;2022-09-16T01:18:02;51278.06;;;-145.83;98.19
7730;BME280;3908;52.310;7.230;2022-09-16T01:21:16;51299.59;;;-145.83;98.66
7730;BME280;3908;52.310;7.230;2022-09-16T01:24:40;51293.72;;;-145.83;98.60
7730;BME280;3908;52.310;7.230;2022-09-16T01:27:50;51307.41;;;-145.83;98.21
7730;BME280;3908;52.310;7.230;2022-09-16T01:31:05;51289.81;;;-145.83;97.79
7730;BME280;3908;52.310;7.230;2022-09-16T01:33:58;51323.06;;;-145.83;97.62
7730;BME280;3908;52.310;7.230;2022-09-16T01:36:51;51319.16;;;-145.83;97.38
7730;BME280;3908;52.310;7.230;2022-09-16T01:39:47;51280.03;;;-145.83;97.17
7730;BME280;3908;52.310;7.230;2022-09-16T01:42:39;51311.31;;;-145.83;96.84
7730;BME280;3908;52.310;7.230;2022-09-16T01:45:36;51272.22;;;-145.83;96.62
7730;BME280;3908;52.310;7.230;2022-09-16T01:48:33;51262.44;;;-145.83;96.85
7730;BME280;3908;52.310;7.230;2022-09-16T01:51:25;51270.25;;;-145.83;97.67
7730;BME280;3908;52.310;7.230;2022-09-16T01:54:20;51305.47;;;-145.83;98.52
7730;BME280;3908;52.310;7.230;2022-09-16T01:57:14;51299.59;;;-145.83;99.98
7730;BME280;3908;52.310;7.230;2022-09-16T02:00:06;51317.19;;;-145.83;100.00
7730;BME280;3908;52.310;7.230;2022-09-16T02:02:58;51291.75;;;-145.83;100.00
7730;BME280;3908;52.310;7.230;2022-09-16T02:05:51;51287.84;;;-145.83;100.00
7730;BME280;3908;52.310;7.230;2022-09-16T02:08:42;51291.75;;;-145.83;100.00
7730;BME280;3908;52.310;7.230;2022-09-16T02:11:32;51299.59;;;-145.83;100.00
7730;BME280;3908;52.310;7.230;2022-09-16T02:14:24;51281.97;;;-145.83;100.00
7730;BME280;3908;52.310;7.230;2022-09-16T02:17:15;51276.13;;;-145.83;100.00
7730;BME280;3908;52.310;7.230;2022-09-16T02:20:07;51307.41;;;-145.83;100.00
7730;BME280;3908;52.310;7.230;2022-09-16T02:23:00;51297.63;;;-145.83;100.00
7730;BME280;3908;52.310;7.230;2022-09-16T02:25:49;51278.06;;;-145.83;100.00
7730;BME280;3908;52.310;7.230;2022-09-16T02:28:41;51299.59;;;-145.83;100.00
7730;BME280;3908;52.310;7.230;2022-09-16T02:31:32;51266.34;;;-145.83;100.00
7730;BME280;3908;52.310;7.230;2022-09-16T02:34:23;51272.22;;;-145.83;100.00
7730;BME280;3908;52.310;7.230;2022-09-16T02:37:15;51264.38;;;-145.83;100.00
7730;BME280;3908;52.310;7.230;2022-09-16T02:40:11;51307.41;;;-145.83;100.00
7730;BME280;3908;52.310;7.230;2022-09-16T02:43:01;51268.28;;;-145.83;100.00
7730;BME280;3908;52.310;7.230;2022-09-16T02:45:55;51307.41;;;-145.83;100.00
7730;BME280;3908;52.310;7.230;2022-09-16T02:48:56;51305.47;;;-145.83;100.00
7730;BME280;3908;52.310;7.230;2022-09-16T02:51:55;51309.38;;;-145.83;100.00
7730;BME280;3908;52.310;7.230;2022-09-16T02:54:49;51289.81;;;-145.83;100.00
7730;BME280;3908;52.310;7.230;2022-09-16T02:57:40;51295.69;;;-145.83;100.00
7730;BME280;3908;52.310;7.230;2022-09-16T03:00:30;51313.28;;;-145.83;100.00
7730;BME280;3908;52.310;7.230;2022-09-16T03:03:19;51291.75;;;-145.83;100.00
7730;BME280;3908;52.310;7.230;2022-09-16T03:06:14;51287.84;;;-145.83;100.00
7730;BME280;3908;52.310;7.230;2022-09-16T03:09:04;51297.63;;;-145.83;100.00
7730;BME280;3908;52.310;7.230;2022-09-16T03:12:05;51274.16;;;-145.83;100.00
7730;BME280;3908;52.310;7.230;2022-09-16T03:15:06;51313.28;;;-145.83;100.00
7730;BME280;3908;52.310;7.230;2022-09-16T03:18:27;51283.94;;;-145.83;100.00
7730;BME280;3908;52.310;7.230;2022-09-16T03:21:24;51307.41;;;-145.83;100.00
7730;BME280;3908;52.310;7.230;2022-09-16T03:24:23;51317.19;;;-145.83;100.00
7730;BME280;3908;52.310;7.230;2022-09-16T03:27:16;51260.47;;;-145.83;100.00
7730;BME280;3908;52.310;7.230;2022-09-16T03:30:09;51289.81;;;-145.83;100.00
7730;BME280;3908;52.310;7.230;2022-09-16T03:32:59;51297.63;;;-145.83;100.00
7730;BME280;3908;52.310;7.230;2022-09-16T03:35:51;51281.97;;;-145.83;100.00
7730;BME280;3908;52.310;7.230;2022-09-16T03:38:42;51291.75;;;-145.83;100.00
7730;BME280;3908;52.310;7.230;2022-09-16T03:41:31;51309.38;;;-145.83;100.00
7730;BME280;3908;52.310;7.230;2022-09-16T03:44:18;51276.13;;;-145.83;100.00
7730;BME280;3908;52.310;7.230;2022-09-16T03:47:07;51301.53;;;-145.83;100.00
7730;BME280;3908;52.310;7.230;2022-09-16T03:49:55;51289.81;;;-145.83;100.00
7730;BME280;3908;52.310;7.230;2022-09-16T03:52:42;51313.28;;;-145.83;100.00
7730;BME280;3908;52.310;7.230;2022-09-16T03:55:29;51319.16;;;-145.83;100.00
7730;BME280;3908;52.310;7.230;2022-09-16T03:58:16;51283.94;;;-145.83;100.00
7730;BME280;3908;52.310;7.230;2022-09-16T04:01:03;51301.53;;;-145.83;100.00
7730;BME280;3908;52.310;7.230;2022-09-16T04:03:51;51307.41;;;-145.83;100.00
7730;BME280;3908;52.310;7.230;2022-09-16T04:06:38;51281.97;;;-145.83;100.00
7730;BME280;3908;52.310;7.230;2022-09-16T04:09:25;51254.59;;;-145.83;100.00
7730;BME280;3908;52.310;7.230;2022-09-16T04:12:12;51340.69;;;-145.83;100.00
7730;BME280;3908;52.310;7.230;2022-09-16T04:15:00;51270.25;;;-145.83;100.00
7730;BME280;3908;52.310;7.230;2022-09-16T04:17:47;51299.59;;;-145.83;100.00
7730;BME280;3908;52.310;7.230;2022-09-16T04:20:35;51305.47;;;-145.83;100.00
7730;BME280;3908;52.310;7.230;2022-09-16T04:23:22;51283.94;;;-145.83;100.00
7730;BME280;3908;52.310;7.230;2022-09-16T04:26:10;51283.94;;;-145.83;100.00
7730;BME280;3908;52.310;7.230;2022-09-16T04:28:57;51280.03;;;-145.83;100.00
7730;BME280;3908;52.310;7.230;2022-09-16T04:31:44;51295.69;;;-145.83;100.00
7730;BME280;3908;52.310;7.230;2022-09-16T04:34:31;51278.06;;;-145.83;100.00
7730;BME280;3908;52.310;7.230;2022-09-16T04:37:19;51278.06;;;-145.83;100.00
7730;BME280;3908;52.310;7.230;2022-09-16T04:40:07;51252.66;;;-145.83;100.00
7730;BME280;3908;52.310;7.230;2022-09-16T04:42:54;51276.13;;;-145.83;100.00
7730;BME280;3908;52.310;7.230;2022-09-16T04:45:41;51248.72;;;-145.83;100.00
7730;BME280;3908;52.310;7.230;2022-09-16T04:48:29;51278.06;;;-145.83;100.00
7730;BME280;3908;52.310;7.230;2022-09-16T04:51:17;51301.53;;;-145.83;100.00
7730;BME280;3908;52.310;7.230;2022-09-16T04:54:05;51256.56;;;-145.83;100.00
7730;BME280;3908;52.310;7.230;2022-09-16T04:56:53;51274.16;;;-145.83;100.00
7730;BME280;3908;52.310;7.230;2022-09-16T04:59:40;51283.94;;;-145.83;100.00
7730;BME280;3908;52.310;7.230;2022-09-16T05:02:27;51283.94;;;-145.83;100.00
7730;BME280;3908;52.310;7.230;2022-09-16T05:05:15;51281.97;;;-145.83;100.00
7730;BME280;3908;52.310;7.230;2022-09-16T05:08:03;51289.81;;;-145.83;100.00
7730;BME280;3908;52.310;7.230;2022-09-16T05:10:51;51291.75;;;-145.83;100.00
7730;BME280;3908;52.310;7.230;2022-09-16T05:13:39;51270.25;;;-145.83;100.00
7730;BME280;3908;52.310;7.230;2022-09-16T05:16:26;51248.72;;;-145.83;100.00
7730;BME280;3908;52.310;7.230;2022-09-16T05:19:13;51281.97;;;-145.83;100.00
7730;BME280;3908;52.310;7.230;2022-09-16T05:22:00;51270.25;;;-145.83;100.00
7730;BME280;3908;52.310;7.230;2022-09-16T05:24:51;51274.16;;;-145.83;100.00
7730;BME280;3908;52.310;7.230;2022-09-16T05:27:40;51301.53;;;-145.83;100.00
7730;BME280;3908;52.310;7.230;2022-09-16T05:30:27;51287.84;;;-145.83;100.00
7730;BME280;3908;52.310;7.230;2022-09-16T05:33:13;51274.16;;;-145.83;100.00
7730;BME280;3908;52.310;7.230;2022-09-16T05:36:03;51309.38;;;-145.83;100.00
7730;BME280;3908;52.310;7.230;2022-09-16T05:38:50;51307.41;;;-145.83;100.00
7730;BME280;3908;52.310;7.230;2022-09-16T05:41:38;51285.91;;;-145.83;100.00
7730;BME280;3908;52.310;7.230;2022-09-16T05:44:27;51276.13;;;-145.83;100.00
7730;BME280;3908;52.310;7.230;2022-09-16T05:47:14;51328.94;;;-145.83;100.00
7730;BME280;3908;52.310;7.230;2022-09-16T05:50:01;51295.69;;;-145.83;100.00
7730;BME280;3908;52.310;7.230;2022-09-16T05:52:48;51287.84;;;-145.83;100.00
7730;BME280;3908;52.310;7.230;2022-09-16T05:55:35;51305.47;;;-145.83;100.00
7730;BME280;3908;52.310;7.230;2022-09-16T05:58:23;51293.72;;;-145.83;100.00
7730;BME280;3908;52.310;7.230;2022-09-16T06:01:13;51264.38;;;-145.83;100.00
7730;BME280;3908;52.310;7.230;2022-09-16T06:04:01;51344.59;;;-145.83;100.00
7730;BME280;3908;52.310;7.230;2022-09-16T06:06:49;51293.72;;;-145.83;100.00
7730;BME280;3908;52.310;7.230;2022-09-16T06:09:36;51309.38;;;-145.83;100.00
7730;BME280;3908;52.310;7.230;2022-09-16T06:12:23;51293.72;;;-145.83;100.00
7730;BME280;3908;52.310;7.230;2022-09-16T06:15:10;51274.16;;;-145.83;100.00
7730;BME280;3908;52.310;7.230;2022-09-16T06:17:59;51321.09;;;-145.83;100.00
7730;BME280;3908;52.310;7.230;2022-09-16T06:20:46;51309.38;;;-145.83;100.00
7730;BME280;3908;52.310;7.230;2022-09-16T06:23:34;51283.94;;;-145.83;100.00
7730;BME280;3908;52.310;7.230;2022-09-16T06:26:23;51332.84;;;-145.83;100.00
7730;BME280;3908;52.310;7.230;2022-09-16T06:29:11;51321.09;;;-145.83;100.00
7730;BME280;3908;52.310;7.230;2022-09-16T06:31:59;51299.59;;;-145.83;100.00
7730;BME280;3908;52.310;7.230;2022-09-16T06:34:47;51328.94;;;-145.83;100.00
7730;BME280;3908;52.310;7.230;2022-09-16T06:37:34;51268.28;;;-145.83;100.00
7730;BME280;3908;52.310;7.230;2022-09-16T06:40:21;51328.94;;;-145.83;100.00
7730;BME280;3908;52.310;7.230;2022-09-16T06:43:08;51328.94;;;-145.83;100.00
7730;BME280;3908;52.310;7.230;2022-09-16T06:45:57;51358.28;;;-145.83;100.00
7730;BME280;3908;52.310;7.230;2022-09-16T06:48:46;51307.41;;;-145.83;100.00
7730;BME280;3908;52.310;7.230;2022-09-16T06:51:36;51373.94;;;-145.83;100.00
7730;BME280;3908;52.310;7.230;2022-09-16T06:54:23;51315.25;;;-145.83;100.00
7730;BME280;3908;52.310;7.230;2022-09-16T06:57:10;51311.31;;;-145.83;100.00
7730;BME280;3908;52.310;7.230;2022-09-16T06:59:57;51326.97;;;-145.83;99.81
7730;BME280;3908;52.310;7.230;2022-09-16T07:02:44;51348.50;;;-145.83;97.61
7730;BME280;3908;52.310;7.230;2022-09-16T07:05:31;51360.22;;;-145.83;95.97
7730;BME280;3908;52.310;7.230;2022-09-16T07:08:20;51325.03;;;-145.83;94.39
7730;BME280;3908;52.310;7.230;2022-09-16T07:11:10;51344.59;;;-145.83;94.35
7730;BME280;3908;52.310;7.230;2022-09-16T07:13:58;51315.25;;;-145.83;92.85
7730;BME280;3908;52.310;7.230;2022-09-16T07:16:45;51336.75;;;-145.83;90.91
7730;BME280;3908;52.310;7.230;2022-09-16T07:19:32;51330.91;;;-145.83;90.78
7730;BME280;3908;52.310;7.230;2022-09-16T07:22:19;51364.16;;;-145.83;89.50
7730;BME280;3908;52.310;7.230;2022-09-16T07:25:08;51371.97;;;-145.83;88.22
7730;BME280;3908;52.310;7.230;2022-09-16T07:27:55;51352.41;;;-145.83;85.05
7730;BME280;3908;52.310;7.230;2022-09-16T07:30:42;51328.94;;;-145.83;83.63
7730;BME280;3908;52.310;7.230;2022-09-16T07:33:30;51360.22;;;-145.83;83.49
7730;BME280;3908;52.310;7.230;2022-09-16T07:36:21;51368.06;;;-145.83;80.12
7730;BME280;3908;52.310;7.230;2022-09-16T07:39:09;51338.72;;;-145.83;79.57
7730;BME280;3908;52.310;7.230;2022-09-16T07:41:58;51360.22;;;-145.83;78.52
7730;BME280;3908;52.310;7.230;2022-09-16T07:44:46;51379.81;;;-145.83;75.84
7730;BME280;3908;52.310;7.230;2022-09-16T07:47:33;51381.75;;;-145.83;76.04
7730;BME280;3908;52.310;7.230;2022-09-16T07:50:20;51350.47;;;-145.83;73.25
7730;BME280;3908;52.310;7.230;2022-09-16T07:53:07;51340.69;;;-145.83;72.18
7730;BME280;3908;52.310;7.230;2022-09-16T07:55:55;51360.22;;;-145.83;71.90
7730;BME280;3908;52.310;7.230;2022-09-16T07:58:45;51385.66;;;-145.83;71.14
7730;BME280;3908;52.310;7.230;2022-09-16T08:01:32;51352.41;;;-145.83;69.82
7730;BME280;3908;52.310;7.230;2022-09-16T08:04:19;51377.84;;;-145.83;69.72
7730;BME280;3908;52.310;7.230;2022-09-16T08:07:06;51334.81;;;-145.83;68.28
7730;BME280;3908;52.310;7.230;2022-09-16T08:09:54;51422.84;;;-145.83;68.26
7730;BME280;3908;52.310;7.230;2022-09-16T08:12:41;51356.31;;;-145.83;68.37
7730;BME280;3908;52.310;7.230;2022-09-16T08:15:29;51362.19;;;-145.83;67.28
7730;BME280;3908;52.310;7.230;2022-09-16T08:18:16;51370.03;;;-145.83;65.69
7730;BME280;3908;52.310;7.230;2022-09-16T08:21:04;51338.72;;;-145.83;66.92
7730;BME280;3908;52.310;7.230;2022-09-16T08:23:52;51354.38;;;-145.83;65.64
7730;BME280;3908;52.310;7.230;2022-09-16T08:26:40;51375.88;;;-145.83;65.18
7730;BME280;3908;52.310;7.230;2022-09-16T08:29:27;51401.31;;;-145.83;65.03
7730;BME280;3908;52.310;7.230;2022-09-16T08:32:15;51379.81;;;-145.83;63.74
7730;BME280;3908;52.310;7.230;2022-09-16T08:35:03;51385.66;;;-145.83;62.96
7730;BME280;3908;52.310;7.230;2022-09-16T08:37:50;51371.97;;;-145.83;62.52
7730;BME280;3908;52.310;7.230;2022-09-16T08:40:43;51395.44;;;-145.83;61.82
7730;BME280;3908;52.310;7.230;2022-09-16T08:43:35;51418.94;;;-145.83;63.24
7730;BME280;3908;52.310;7.230;2022-09-16T08:46:27;51338.72;;;-145.83;60.92
7730;BME280;3908;52.310;7.230;2022-09-16T08:49:21;51403.28;;;-145.83;62.67
7730;BME280;3908;52.310;7.230;2022-09-16T08:52:17;51350.47;;;-145.83;61.37
7730;BME280;3908;52.310;7.230;2022-09-16T08:55:11;51383.72;;;-145.83;62.39
7730;BME280;3908;52.310;7.230;2022-09-16T08:58:02;51377.84;;;-145.83;62.02
7730;BME280;3908;52.310;7.230;2022-09-16T09:00:53;51360.22;;;-145.83;60.29
7730;BME280;3908;52.310;7.230;2022-09-16T09:03:45;51393.50;;;-145.83;60.54
7730;BME280;3908;52.310;7.230;2022-09-16T09:06:52;51381.75;;;-145.83;60.42
7730;BME280;3908;52.310;7.230;2022-09-16T09:09:51;51395.44;;;-145.83;60.65
7730;BME280;3908;52.310;7.230;2022-09-16T09:12:44;51375.88;;;-145.83;60.13
7730;BME280;3908;52.310;7.230;2022-09-16T09:15:40;51371.97;;;-145.83;59.35
7730;BME280;3908;52.310;7.230;2022-09-16T09:18:37;51371.97;;;-145.83;59.43
7730;BME280;3908;52.310;7.230;2022-09-16T09:21:30;51381.75;;;-145.83;60.48
7730;BME280;3908;52.310;7.230;2022-09-16T09:24:32;51381.75;;;-145.83;59.98
7730;BME280;3908;52.310;7.230;2022-09-16T09:27:26;51362.19;;;-145.83;62.10
7730;BME280;3908;52.310;7.230;2022-09-16T09:30:19;51393.50;;;-145.83;62.48
7730;BME280;3908;52.310;7.230;2022-09-16T09:33:19;51411.09;;;-145.83;60.64
7730;BME280;3908;52.310;7.230;2022-09-16T09:36:22;51405.22;;;-145.83;61.15
7730;BME280;3908;52.310;7.230;2022-09-16T09:39:25;51397.41;;;-145.83;59.67
7730;BME280;3908;52.310;7.230;2022-09-16T09:42:19;51368.06;;;-145.83;59.96
7730;BME280;3908;52.310;7.230;2022-09-16T09:45:15;51415.00;;;-145.83;60.56
7730;BME280;3908;52.310;7.230;2022-09-16T09:48:14;51395.44;;;-145.83;59.15
7730;BME280;3908;52.310;7.230;2022-09-16T09:51:07;51379.81;;;-145.83;57.54
7730;BME280;3908;52.310;7.230;2022-09-16T09:54:01;51368.06;;;-145.83;57.97
7730;BME280;3908;52.310;7.230;2022-09-16T09:56:53;51385.66;;;-145.83;59.43
7730;BME280;3908;52.310;7.230;2022-09-16T09:59:46;51354.38;;;-145.83;58.25
7730;BME280;3908;52.310;7.230;2022-09-16T10:02:38;51385.66;;;-145.83;58.87
7730;BME280;3908;52.310;7.230;2022-09-16T10:05:26;51381.75;;;-145.83;56.12
7730;BME280;3908;52.310;7.230;2022-09-16T10:08:18;51418.94;;;-145.83;55.07
7730;BME280;3908;52.310;7.230;2022-09-16T10:11:15;51397.41;;;-145.83;56.91
7730;BME280;3908;52.310;7.230;2022-09-16T10:14:04;51383.72;;;-145.83;56.96
7730;BME280;3908;52.310;7.230;2022-09-16T10:16:52;51395.44;;;-145.83;58.06
7730;BME280;3908;52.310;7.230;2022-09-16T10:19:50;51352.41;;;-145.83;58.15
7730;BME280;3908;52.310;7.230;2022-09-16T10:22:37;51422.84;;;-145.83;54.59
7730;BME280;3908;52.310;7.230;2022-09-16T10:25:25;51397.41;;;-145.83;54.91
7730;BME280;3908;52.310;7.230;2022-09-16T10:28:20;51422.84;;;-145.83;53.86
7730;BME280;3908;52.310;7.230;2022-09-16T10:31:10;51434.56;;;-145.83;53.07
7730;BME280;3908;52.310;7.230;2022-09-16T10:33:58;51450.22;;;-145.83;54.36
7730;BME280;3908;52.310;7.230;2022-09-16T10:36:58;51434.56;;;-145.83;55.86
7730;BME280;3908;52.310;7.230;2022-09-16T10:39:50;51366.09;;;-145.83;55.72
7730;BME280;3908;52.310;7.230;2022-09-16T10:42:38;51368.06;;;-145.83;57.66
7730;BME280;3908;52.310;7.230;2022-09-16T10:45:26;51354.38;;;-145.83;66.19
7730;BME280;3908;52.310;7.230;2022-09-16T10:48:18;51348.50;;;-145.83;70.91
7730;BME280;3908;52.310;7.230;2022-09-16T10:51:20;51305.47;;;-145.83;73.62
7730;BME280;3908;52.310;7.230;2022-09-16T10:54:23;51311.31;;;-145.83;74.84
7730;BME280;3908;52.310;7.230;2022-09-16T10:57:25;51340.69;;;-145.83;77.24
7730;BME280;3908;52.310;7.230;2022-09-16T11:00:14;51348.50;;;-145.83;76.57
7730;BME280;3908;52.310;7.230;2022-09-16T11:03:30;51362.19;;;-145.83;75.83
7730;BME280;3908;52.310;7.230;2022-09-16T11:06:35;51366.09;;;-145.83;76.59
7730;BME280;3908;52.310;7.230;2022-09-16T11:09:30;51411.09;;;-145.83;74.72
7730;BME280;3908;52.310;7.230;2022-09-16T11:12:35;51383.72;;;-145.83;73.00
7730;BME280;3908;52.310;7.230;2022-09-16T11:15:33;51391.53;;;-145.83;70.67
7730;BME280;3908;52.310;7.230;2022-09-16T11:18:32;51381.75;;;-145.83;70.43
7730;BME280;3908;52.310;7.230;2022-09-16T11:21:43;51416.97;;;-145.83;68.95
7730;BME280;3908;52.310;7.230;2022-09-16T11:24:43;51389.59;;;-145.83;69.21
7730;BME280;3908;52.310;7.230;2022-09-16T11:27:40;51395.44;;;-145.83;68.46
7730;BME280;3908;52.310;7.230;2022-09-16T11:30:33;51393.50;;;-145.83;70.27
7730;BME280;3908;52.310;7.230;2022-09-16T11:33:29;51375.88;;;-145.83;69.54
7730;BME280;3908;52.310;7.230;2022-09-16T11:36:45;51362.19;;;-145.83;69.56
7730;BME280;3908;52.310;7.230;2022-09-16T11:39:48;51377.84;;;-145.83;71.27
7730;BME280;3908;52.310;7.230;2022-09-16T11:42:41;51338.72;;;-145.83;67.92
7730;BME280;3908;52.310;7.230;2022-09-16T11:45:40;51385.66;;;-145.83;70.21
7730;BME280;3908;52.310;7.230;2022-09-16T11:48:38;51381.75;;;-145.83;68.12
7730;BME280;3908;52.310;7.230;2022-09-16T11:51:39;51356.31;;;-145.83;63.60
7730;BME280;3908;52.310;7.230;2022-09-16T11:54:49;51375.88;;;-145.83;66.48
7730;BME280;3908;52.310;7.230;2022-09-16T11:57:47;51373.94;;;-145.83;67.16
7730;BME280;3908;52.310;7.230;2022-09-16T12:00:37;51370.03;;;-145.83;66.69
7730;BME280;3908;52.310;7.230;2022-09-16T12:03:29;51383.72;;;-145.83;68.81
7730;BME280;3908;52.310;7.230;2022-09-16T12:06:20;51393.50;;;-145.83;68.35
7730;BME280;3908;52.310;7.230;2022-09-16T12:09:13;51371.97;;;-145.83;68.59
7730;BME280;3908;52.310;7.230;2022-09-16T12:12:09;51358.28;;;-145.83;68.65
7730;BME280;3908;52.310;7.230;2022-09-16T12:15:00;51409.16;;;-145.83;65.68
7730;BME280;3908;52.310;7.230;2022-09-16T12:17:52;51370.03;;;-145.83;63.85
7730;BME280;3908;52.310;7.230;2022-09-16T12:20:43;51385.66;;;-145.83;65.02
7730;BME280;3908;52.310;7.230;2022-09-16T12:23:37;51397.41;;;-145.83;61.79
7730;BME280;3908;52.310;7.230;2022-09-16T12:26:31;51385.66;;;-145.83;59.69
7730;BME280;3908;52.310;7.230;2022-09-16T12:29:22;51393.50;;;-145.83;58.29
7730;BME280;3908;52.310;7.230;2022-09-16T12:32:17;51407.19;;;-145.83;60.77
7730;BME280;3908;52.310;7.230;2022-09-16T12:35:12;51362.19;;;-145.83;60.40
7730;BME280;3908;52.310;7.230;2022-09-16T12:38:00;51356.31;;;-145.83;61.63
7730;BME280;3908;52.310;7.230;2022-09-16T12:41:00;51356.31;;;-145.83;63.16
7730;BME280;3908;52.310;7.230;2022-09-16T12:44:08;51379.81;;;-145.83;64.03
7730;BME280;3908;52.310;7.230;2022-09-16T12:47:15;51366.09;;;-145.83;61.93
7730;BME280;3908;52.310;7.230;2022-09-16T12:50:39;51326.97;;;-145.83;63.17
7730;BME280;3908;52.310;7.230;2022-09-16T12:57:04;51395.44;;;-145.83;60.72
7730;BME280;3908;52.310;7.230;2022-09-16T13:00:18;51366.09;;;-145.83;60.55
7730;BME280;3908;52.310;7.230;2022-09-16T13:03:08;51381.75;;;-145.83;60.61
7730;BME280;3908;52.310;7.230;2022-09-16T13:06:02;51383.72;;;-145.83;61.31
7730;BME280;3908;52.310;7.230;2022-09-16T13:08:51;51407.19;;;-145.83;58.15
7730;BME280;3908;52.310;7.230;2022-09-16T13:11:39;51385.66;;;-145.83;57.72
7730;BME280;3908;52.310;7.230;2022-09-16T13:14:29;51375.88;;;-145.83;55.77
7730;BME280;3908;52.310;7.230;2022-09-16T13:17:28;51360.22;;;-145.83;57.62
7730;BME280;3908;52.310;7.230;2022-09-16T13:20:17;51391.53;;;-145.83;57.97
7730;BME280;3908;52.310;7.230;2022-09-16T13:23:12;51370.03;;;-145.83;63.76
7730;BME280;3908;52.310;7.230;2022-09-16T13:26:02;51336.75;;;-145.83;66.29
7730;BME280;3908;52.310;7.230;2022-09-16T13:28:51;51381.75;;;-145.83;68.63
7730;BME280;3908;52.310;7.230;2022-09-16T13:31:45;51397.41;;;-145.83;69.13
7730;BME280;3908;52.310;7.230;2022-09-16T13:34:34;51381.75;;;-145.83;68.48
7730;BME280;3908;52.310;7.230;2022-09-16T13:37:24;51354.38;;;-145.83;66.03
7730;BME280;3908;52.310;7.230;2022-09-16T13:40:22;51411.09;;;-145.83;66.55
7730;BME280;3908;52.310;7.230;2022-09-16T13:43:13;51360.22;;;-145.83;61.85
7730;BME280;3908;52.310;7.230;2022-09-16T13:46:02;51368.06;;;-145.83;63.11
7730;BME280;3908;52.310;7.230;2022-09-16T13:48:54;51356.31;;;-145.83;66.96
7730;BME280;3908;52.310;7.230;2022-09-16T13:51:45;51346.53;;;-145.83;71.18
7730;BME280;3908;52.310;7.230;2022-09-16T13:54:39;51356.31;;;-145.83;69.91
7730;BME280;3908;52.310;7.230;2022-09-16T13:57:42;51373.94;;;-145.83;68.20
7730;BME280;3908;52.310;7.230;2022-09-16T14:00:38;51344.59;;;-145.83;69.73
7730;BME280;3908;52.310;7.230;2022-09-16T14:03:40;51356.31;;;-145.83;68.18
7730;BME280;3908;52.310;7.230;2022-09-16T14:06:44;51389.59;;;-145.83;67.65
7730;BME280;3908;52.310;7.230;2022-09-16T14:09:41;51336.75;;;-145.83;64.87
7730;BME280;3908;52.310;7.230;2022-09-16T14:12:40;51350.47;;;-145.83;63.92
7730;BME280;3908;52.310;7.230;2022-09-16T14:15:34;51328.94;;;-145.83;60.44
7730;BME280;3908;52.310;7.230;2022-09-16T14:18:25;51371.97;;;-145.83;60.98
7730;BME280;3908;52.310;7.230;2022-09-16T14:21:17;51358.28;;;-145.83;61.59
7730;BME280;3908;52.310;7.230;2022-09-16T14:24:16;51362.19;;;-145.83;60.02
7730;BME280;3908;52.310;7.230;2022-09-16T14:27:04;51373.94;;;-145.83;59.38
7730;BME280;3908;52.310;7.230;2022-09-16T14:29:56;51375.88;;;-145.83;58.10
7730;BME280;3908;52.310;7.230;2022-09-16T14:32:45;51375.88;;;-145.83;56.23
7730;BME280;3908;52.310;7.230;2022-09-16T14:35:32;51358.28;;;-145.83;56.42
7730;BME280;3908;52.310;7.230;2022-09-16T14:38:24;51377.84;;;-145.83;51.85
7730;BME280;3908;52.310;7.230;2022-09-16T14:41:28;51366.09;;;-145.83;52.01
7730;BME280;3908;52.310;7.230;2022-09-16T14:44:20;51399.38;;;-145.83;54.26
7730;BME280;3908;52.310;7.230;2022-09-16T14:47:16;51409.16;;;-145.83;54.18
7730;BME280;3908;52.310;7.230;2022-09-16T14:50:09;51368.06;;;-145.83;54.46
7730;BME280;3908;52.310;7.230;2022-09-16T14:52:59;51350.47;;;-145.83;53.69
7730;BME280;3908;52.310;7.230;2022-09-16T14:55:48;51356.31;;;-145.83;53.06
7730;BME280;3908;52.310;7.230;2022-09-16T14:58:36;51366.09;;;-145.83;54.38
7730;BME280;3908;52.310;7.230;2022-09-16T15:01:26;51354.38;;;-145.83;55.09
7730;BME280;3908;52.310;7.230;2022-09-16T15:04:16;51344.59;;;-145.83;54.14
7730;BME280;3908;52.310;7.230;2022-09-16T15:07:09;51354.38;;;-145.83;54.35
7730;BME280;3908;52.310;7.230;2022-09-16T15:10:00;51336.75;;;-145.83;54.36
7730;BME280;3908;52.310;7.230;2022-09-16T15:12:50;51360.22;;;-145.83;54.22